sensor_id;sensor_type;location;lat;lon;timestamp;P1;durP1;ratioP1;P2;durP2;ratioP2
16173;SDS011;14031;50.158;8.626;2023-10-19T00:00:21;7.93;;;7.23;;
16173;SDS011;14031;50.158;8.626;2023-10-19T00:02:48;7.80;;;7.20;;
16173;SDS011;14031;50.158;8.626;2023-10-19T00:05:16;8.07;;;7.53;;
16173;SDS011;14031;50.158;8.626;2023-10-19T00:07:45;7.37;;;6.83;;
16173;SDS011;14031;50.158;8.626;2023-10-19T00:10:12;7.87;;;7.17;;
16173;SDS011;14031;50.158;8.626;2023-10-19T00:12:41;7.80;;;7.20;;
16173;SDS011;14031;50.158;8.626;2023-10-19T00:15:15;7.80;;;7.10;;
16173;SDS011;14031;50.158;8.626;2023-10-19T00:17:49;7.47;;;6.93;;
16173;SDS011;14031;50.158;8.626;2023-10-19T00:20:18;8.37;;;7.70;;
16173;SDS011;14031;50.158;8.626;2023-10-19T00:23:00;7.67;;;7.17;;
16173;SDS011;14031;50.158;8.626;2023-10-19T00:25:30;8.03;;;7.30;;
16173;SDS011;14031;50.158;8.626;2023-10-19T00:27:57;8.37;;;7.67;;
16173;SDS011;14031;50.158;8.626;2023-10-19T00:30:28;7.70;;;7.10;;
16173;SDS011;14031;50.158;8.626;2023-10-19T00:32:59;8.47;;;7.47;;
16173;SDS011;14031;50.158;8.626;2023-10-19T00:35:29;8.20;;;7.37;;
16173;SDS011;14031;50.158;8.626;2023-10-19T00:38:01;8.47;;;7.83;;
16173;SDS011;14031;50.158;8.626;2023-10-19T00:40:52;7.80;;;7.20;;
16173;SDS011;14031;50.158;8.626;2023-10-19T00:43:27;7.63;;;7.13;;
16173;SDS011;14031;50.158;8.626;2023-10-19T00:45:57;8.13;;;7.43;;
16173;SDS011;14031;50.158;8.626;2023-10-19T00:48:27;7.90;;;7.27;;
16173;SDS011;14031;50.158;8.626;2023-10-19T00:50:57;8.40;;;7.70;;
16173;SDS011;14031;50.158;8.626;2023-10-19T00:53:35;8.20;;;7.60;;
16173;SDS011;14031;50.158;8.626;2023-10-19T00:56:04;7.93;;;7.33;;
16173;SDS011;14031;50.158;8.626;2023-10-19T00:58:34;7.63;;;7.03;;
16173;SDS011;14031;50.158;8.626;2023-10-19T01:01:04;7.33;;;6.83;;
16173;SDS011;14031;50.158;8.626;2023-10-19T01:03:33;8.30;;;7.70;;
16173;SDS011;14031;50.158;8.626;2023-10-19T01:06:03;7.83;;;7.30;;
16173;SDS011;14031;50.158;8.626;2023-10-19T01:08:37;7.60;;;7.07;;
16173;SDS011;14031;50.158;8.626;2023-10-19T01:11:08;8.17;;;7.37;;
16173;SDS011;14031;50.158;8.626;2023-10-19T01:13:36;7.97;;;7.27;;
16173;SDS011;14031;50.158;8.626;2023-10-19T01:16:03;8.27;;;7.57;;
16173;SDS011;14031;50.158;8.626;2023-10-19T01:18:30;7.80;;;7.20;;
16173;SDS011;14031;50.158;8.626;2023-10-19T01:20:59;9.07;;;8.10;;
16173;SDS011;14031;50.158;8.626;2023-10-19T01:23:31;8.97;;;8.17;;
16173;SDS011;14031;50.158;8.626;2023-10-19T01:26:00;8.10;;;7.50;;
16173;SDS011;14031;50.158;8.626;2023-10-19T01:28:32;8.17;;;7.67;;
16173;SDS011;14031;50.158;8.626;2023-10-19T01:31:12;12.60;;;8.40;;
16173;SDS011;14031;50.158;8.626;2023-10-19T01:33:42;9.37;;;8.47;;
16173;SDS011;14031;50.158;8.626;2023-10-19T01:36:10;8.30;;;7.60;;
16173;SDS011;14031;50.158;8.626;2023-10-19T01:38:38;7.90;;;7.30;;
16173;SDS011;14031;50.158;8.626;2023-10-19T01:41:06;7.77;;;7.27;;
16173;SDS011;14031;50.158;8.626;2023-10-19T01:43:38;8.17;;;7.53;;
16173;SDS011;14031;50.158;8.626;2023-10-19T01:46:06;8.33;;;7.73;;
16173;SDS011;14031;50.158;8.626;2023-10-19T01:48:37;8.17;;;7.63;;
16173;SDS011;14031;50.158;8.626;2023-10-19T01:51:06;8.47;;;7.60;;
16173;SDS011;14031;50.158;8.626;2023-10-19T01:53:35;7.77;;;7.13;;
16173;SDS011;14031;50.158;8.626;2023-10-19T01:56:05;8.37;;;7.57;;
16173;SDS011;14031;50.158;8.626;2023-10-19T01:58:34;8.87;;;7.30;;
16173;SDS011;14031;50.158;8.626;2023-10-19T02:01:02;8.60;;;7.90;;
16173;SDS011;14031;50.158;8.626;2023-10-19T02:03:40;7.17;;;6.77;;
16173;SDS011;14031;50.158;8.626;2023-10-19T02:06:07;10.70;;;7.77;;
16173;SDS011;14031;50.158;8.626;2023-10-19T02:08:43;8.30;;;7.63;;
16173;SDS011;14031;50.158;8.626;2023-10-19T02:11:10;8.47;;;7.87;;
16173;SDS011;14031;50.158;8.626;2023-10-19T02:13:42;8.57;;;7.90;;
16173;SDS011;14031;50.158;8.626;2023-10-19T02:16:10;9.13;;;8.33;;
16173;SDS011;14031;50.158;8.626;2023-10-19T02:18:36;8.20;;;7.60;;
16173;SDS011;14031;50.158;8.626;2023-10-19T02:21:03;8.47;;;7.87;;
16173;SDS011;14031;50.158;8.626;2023-10-19T02:23:30;8.20;;;7.53;;
16173;SDS011;14031;50.158;8.626;2023-10-19T02:26:00;8.40;;;7.70;;
16173;SDS011;14031;50.158;8.626;2023-10-19T02:28:28;8.60;;;7.90;;
16173;SDS011;14031;50.158;8.626;2023-10-19T02:30:57;8.20;;;7.50;;
16173;SDS011;14031;50.158;8.626;2023-10-19T02:33:35;8.97;;;8.17;;
16173;SDS011;14031;50.158;8.626;2023-10-19T02:36:02;8.43;;;7.80;;
16173;SDS011;14031;50.158;8.626;2023-10-19T02:38:30;8.40;;;7.67;;
16173;SDS011;14031;50.158;8.626;2023-10-19T02:40:58;7.90;;;7.40;;
16173;SDS011;14031;50.158;8.626;2023-10-19T02:43:26;8.57;;;7.87;;
16173;SDS011;14031;50.158;8.626;2023-10-19T02:45:54;8.80;;;8.00;;
16173;SDS011;14031;50.158;8.626;2023-10-19T02:48:20;8.60;;;7.90;;
16173;SDS011;14031;50.158;8.626;2023-10-19T02:50:49;8.47;;;7.77;;
16173;SDS011;14031;50.158;8.626;2023-10-19T02:53:14;9.03;;;8.33;;
16173;SDS011;14031;50.158;8.626;2023-10-19T02:55:44;8.40;;;7.77;;
16173;SDS011;14031;50.158;8.626;2023-10-19T02:58:10;8.43;;;7.77;;
16173;SDS011;14031;50.158;8.626;2023-10-19T03:00:39;8.03;;;7.53;;
16173;SDS011;14031;50.158;8.626;2023-10-19T03:03:06;7.63;;;7.13;;
16173;SDS011;14031;50.158;8.626;2023-10-19T03:05:32;8.80;;;8.10;;
16173;SDS011;14031;50.158;8.626;2023-10-19T03:08:00;8.40;;;7.80;;
16173;SDS011;14031;50.158;8.626;2023-10-19T03:10:30;8.20;;;7.47;;
16173;SDS011;14031;50.158;8.626;2023-10-19T03:13:07;8.57;;;7.87;;
16173;SDS011;14031;50.158;8.626;2023-10-19T03:15:33;8.43;;;7.80;;
16173;SDS011;14031;50.158;8.626;2023-10-19T03:18:01;8.43;;;7.83;;
16173;SDS011;14031;50.158;8.626;2023-10-19T03:20:29;8.50;;;7.87;;
16173;SDS011;14031;50.158;8.626;2023-10-19T03:22:58;8.87;;;8.13;;
16173;SDS011;14031;50.158;8.626;2023-10-19T03:25:26;8.73;;;8.10;;
16173;SDS011;14031;50.158;8.626;2023-10-19T03:28:16;8.77;;;8.10;;
16173;SDS011;14031;50.158;8.626;2023-10-19T03:30:44;10.53;;;8.33;;
16173;SDS011;14031;50.158;8.626;2023-10-19T03:33:13;9.43;;;8.53;;
16173;SDS011;14031;50.158;8.626;2023-10-19T03:35:43;8.90;;;8.17;;
16173;SDS011;14031;50.158;8.626;2023-10-19T03:38:10;10.27;;;9.40;;
16173;SDS011;14031;50.158;8.626;2023-10-19T03:40:42;9.70;;;9.00;;
16173;SDS011;14031;50.158;8.626;2023-10-19T03:43:16;9.87;;;8.87;;
16173;SDS011;14031;50.158;8.626;2023-10-19T03:45:46;10.03;;;9.03;;
16173;SDS011;14031;50.158;8.626;2023-10-19T03:48:19;10.27;;;9.37;;
16173;SDS011;14031;50.158;8.626;2023-10-19T03:50:51;12.00;;;9.40;;
16173;SDS011;14031;50.158;8.626;2023-10-19T03:53:20;10.57;;;9.47;;
16173;SDS011;14031;50.158;8.626;2023-10-19T03:55:48;10.17;;;9.23;;
16173;SDS011;14031;50.158;8.626;2023-10-19T03:58:17;10.87;;;9.70;;
16173;SDS011;14031;50.158;8.626;2023-10-19T04:00:46;9.93;;;9.13;;
16173;SDS011;14031;50.158;8.626;2023-10-19T04:03:14;11.73;;;8.77;;
16173;SDS011;14031;50.158;8.626;2023-10-19T04:05:43;10.10;;;9.20;;
16173;SDS011;14031;50.158;8.626;2023-10-19T04:08:12;9.93;;;8.77;;
16173;SDS011;14031;50.158;8.626;2023-10-19T04:10:41;10.13;;;9.23;;
16173;SDS011;14031;50.158;8.626;2023-10-19T04:13:13;10.47;;;9.10;;
16173;SDS011;14031;50.158;8.626;2023-10-19T04:15:42;9.37;;;8.57;;
16173;SDS011;14031;50.158;8.626;2023-10-19T04:18:10;9.73;;;9.00;;
16173;SDS011;14031;50.158;8.626;2023-10-19T04:20:37;11.10;;;10.10;;
16173;SDS011;14031;50.158;8.626;2023-10-19T04:23:19;9.70;;;8.90;;
16173;SDS011;14031;50.158;8.626;2023-10-19T04:25:47;11.07;;;10.07;;
16173;SDS011;14031;50.158;8.626;2023-10-19T04:28:14;11.23;;;9.70;;
16173;SDS011;14031;50.158;8.626;2023-10-19T04:30:44;11.17;;;10.13;;
16173;SDS011;14031;50.158;8.626;2023-10-19T04:33:10;10.87;;;9.57;;
16173;SDS011;14031;50.158;8.626;2023-10-19T04:35:41;11.73;;;10.63;;
16173;SDS011;14031;50.158;8.626;2023-10-19T04:38:08;14.30;;;9.83;;
16173;SDS011;14031;50.158;8.626;2023-10-19T04:40:36;11.30;;;10.03;;
16173;SDS011;14031;50.158;8.626;2023-10-19T04:43:03;11.63;;;10.43;;
16173;SDS011;14031;50.158;8.626;2023-10-19T04:45:30;11.17;;;10.17;;
16173;SDS011;14031;50.158;8.626;2023-10-19T04:47:57;12.20;;;9.63;;
16173;SDS011;14031;50.158;8.626;2023-10-19T04:50:24;11.80;;;10.40;;
16173;SDS011;14031;50.158;8.626;2023-10-19T04:52:50;12.20;;;10.00;;
16173;SDS011;14031;50.158;8.626;2023-10-19T04:55:17;11.97;;;10.27;;
16173;SDS011;14031;50.158;8.626;2023-10-19T04:57:45;12.00;;;10.50;;
16173;SDS011;14031;50.158;8.626;2023-10-19T05:00:13;11.80;;;10.10;;
16173;SDS011;14031;50.158;8.626;2023-10-19T05:02:40;10.90;;;9.97;;
16173;SDS011;14031;50.158;8.626;2023-10-19T05:05:08;12.00;;;10.50;;
16173;SDS011;14031;50.158;8.626;2023-10-19T05:07:34;12.10;;;10.80;;
16173;SDS011;14031;50.158;8.626;2023-10-19T05:10:01;14.33;;;10.77;;
16173;SDS011;14031;50.158;8.626;2023-10-19T05:12:30;13.50;;;10.30;;
16173;SDS011;14031;50.158;8.626;2023-10-19T05:14:58;16.67;;;11.30;;
16173;SDS011;14031;50.158;8.626;2023-10-19T05:17:25;13.93;;;10.70;;
16173;SDS011;14031;50.158;8.626;2023-10-19T05:19:52;12.43;;;11.17;;
16173;SDS011;14031;50.158;8.626;2023-10-19T05:22:19;12.97;;;10.23;;
16173;SDS011;14031;50.158;8.626;2023-10-19T05:24:46;14.33;;;10.03;;
16173;SDS011;14031;50.158;8.626;2023-10-19T05:27:13;15.90;;;11.83;;
16173;SDS011;14031;50.158;8.626;2023-10-19T05:29:40;21.67;;;11.03;;
16173;SDS011;14031;50.158;8.626;2023-10-19T05:32:08;14.73;;;11.17;;
16173;SDS011;14031;50.158;8.626;2023-10-19T05:34:35;16.80;;;11.50;;
16173;SDS011;14031;50.158;8.626;2023-10-19T05:37:02;12.23;;;11.00;;
16173;SDS011;14031;50.158;8.626;2023-10-19T05:39:30;14.87;;;11.50;;
16173;SDS011;14031;50.158;8.626;2023-10-19T05:41:58;13.50;;;11.93;;
16173;SDS011;14031;50.158;8.626;2023-10-19T05:44:26;14.60;;;12.00;;
16173;SDS011;14031;50.158;8.626;2023-10-19T05:46:53;19.93;;;11.27;;
16173;SDS011;14031;50.158;8.626;2023-10-19T05:49:22;17.13;;;11.67;;
16173;SDS011;14031;50.158;8.626;2023-10-19T05:51:49;17.10;;;11.97;;
16173;SDS011;14031;50.158;8.626;2023-10-19T05:54:16;19.50;;;12.83;;
16173;SDS011;14031;50.158;8.626;2023-10-19T05:56:43;20.77;;;12.97;;
16173;SDS011;14031;50.158;8.626;2023-10-19T05:59:11;17.93;;;12.40;;
16173;SDS011;14031;50.158;8.626;2023-10-19T06:01:38;18.13;;;13.00;;
16173;SDS011;14031;50.158;8.626;2023-10-19T06:04:06;21.87;;;14.33;;
16173;SDS011;14031;50.158;8.626;2023-10-19T06:06:34;26.40;;;14.67;;
16173;SDS011;14031;50.158;8.626;2023-10-19T06:09:02;25.37;;;14.57;;
16173;SDS011;14031;50.158;8.626;2023-10-19T06:11:29;28.67;;;14.90;;
16173;SDS011;14031;50.158;8.626;2023-10-19T06:13:57;28.47;;;15.13;;
16173;SDS011;14031;50.158;8.626;2023-10-19T06:16:24;32.63;;;15.60;;
16173;SDS011;14031;50.158;8.626;2023-10-19T06:18:53;29.60;;;15.47;;
16173;SDS011;14031;50.158;8.626;2023-10-19T06:21:20;35.73;;;15.87;;
16173;SDS011;14031;50.158;8.626;2023-10-19T06:23:48;31.30;;;15.33;;
16173;SDS011;14031;50.158;8.626;2023-10-19T06:26:15;38.30;;;15.60;;
16173;SDS011;14031;50.158;8.626;2023-10-19T06:28:42;31.77;;;16.53;;
16173;SDS011;14031;50.158;8.626;2023-10-19T06:31:09;35.00;;;16.03;;
16173;SDS011;14031;50.158;8.626;2023-10-19T06:33:36;37.63;;;18.13;;
16173;SDS011;14031;50.158;8.626;2023-10-19T06:36:06;40.97;;;18.07;;
16173;SDS011;14031;50.158;8.626;2023-10-19T06:38:34;45.23;;;17.87;;
16173;SDS011;14031;50.158;8.626;2023-10-19T06:41:02;43.83;;;17.57;;
16173;SDS011;14031;50.158;8.626;2023-10-19T06:43:37;33.47;;;16.03;;
16173;SDS011;14031;50.158;8.626;2023-10-19T06:46:04;34.70;;;17.10;;
16173;SDS011;14031;50.158;8.626;2023-10-19T06:48:30;46.70;;;18.40;;
16173;SDS011;14031;50.158;8.626;2023-10-19T06:50:57;47.23;;;18.43;;
16173;SDS011;14031;50.158;8.626;2023-10-19T06:53:25;43.47;;;17.73;;
16173;SDS011;14031;50.158;8.626;2023-10-19T06:55:52;39.33;;;17.17;;
16173;SDS011;14031;50.158;8.626;2023-10-19T06:58:21;43.60;;;18.03;;
16173;SDS011;14031;50.158;8.626;2023-10-19T07:00:51;38.53;;;17.73;;
16173;SDS011;14031;50.158;8.626;2023-10-19T07:03:24;39.60;;;17.60;;
16173;SDS011;14031;50.158;8.626;2023-10-19T07:05:53;38.17;;;17.73;;
16173;SDS011;14031;50.158;8.626;2023-10-19T07:08:21;44.77;;;17.83;;
16173;SDS011;14031;50.158;8.626;2023-10-19T07:10:48;41.13;;;18.20;;
16173;SDS011;14031;50.158;8.626;2023-10-19T07:13:15;45.77;;;18.80;;
16173;SDS011;14031;50.158;8.626;2023-10-19T07:15:45;41.97;;;18.27;;
16173;SDS011;14031;50.158;8.626;2023-10-19T07:18:14;49.67;;;19.97;;
16173;SDS011;14031;50.158;8.626;2023-10-19T07:20:41;46.27;;;20.20;;
16173;SDS011;14031;50.158;8.626;2023-10-19T07:23:08;46.03;;;20.43;;
16173;SDS011;14031;50.158;8.626;2023-10-19T07:25:45;44.83;;;19.60;;
16173;SDS011;14031;50.158;8.626;2023-10-19T07:28:13;47.33;;;19.53;;
16173;SDS011;14031;50.158;8.626;2023-10-19T07:30:41;49.67;;;20.10;;
16173;SDS011;14031;50.158;8.626;2023-10-19T07:33:09;49.10;;;20.23;;
16173;SDS011;14031;50.158;8.626;2023-10-19T07:35:42;45.20;;;20.30;;
16173;SDS011;14031;50.158;8.626;2023-10-19T07:38:12;54.27;;;22.20;;
16173;SDS011;14031;50.158;8.626;2023-10-19T07:40:39;45.07;;;21.57;;
16173;SDS011;14031;50.158;8.626;2023-10-19T07:43:06;58.20;;;21.93;;
16173;SDS011;14031;50.158;8.626;2023-10-19T07:45:33;46.47;;;22.00;;
16173;SDS011;14031;50.158;8.626;2023-10-19T07:48:01;50.63;;;22.93;;
16173;SDS011;14031;50.158;8.626;2023-10-19T07:50:33;49.67;;;22.60;;
16173;SDS011;14031;50.158;8.626;2023-10-19T07:53:01;56.70;;;22.30;;
16173;SDS011;14031;50.158;8.626;2023-10-19T07:55:29;47.93;;;22.00;;
16173;SDS011;14031;50.158;8.626;2023-10-19T07:57:57;50.90;;;22.97;;
16173;SDS011;14031;50.158;8.626;2023-10-19T08:00:26;49.00;;;23.70;;
16173;SDS011;14031;50.158;8.626;2023-10-19T08:02:54;46.87;;;22.57;;
16173;SDS011;14031;50.158;8.626;2023-10-19T08:05:21;50.20;;;21.83;;
16173;SDS011;14031;50.158;8.626;2023-10-19T08:07:49;46.73;;;22.60;;
16173;SDS011;14031;50.158;8.626;2023-10-19T08:10:17;44.97;;;21.67;;
16173;SDS011;14031;50.158;8.626;2023-10-19T08:12:45;51.77;;;23.20;;
16173;SDS011;14031;50.158;8.626;2023-10-19T08:15:13;49.57;;;22.37;;
16173;SDS011;14031;50.158;8.626;2023-10-19T08:17:42;48.57;;;21.70;;
16173;SDS011;14031;50.158;8.626;2023-10-19T08:20:10;46.07;;;22.57;;
16173;SDS011;14031;50.158;8.626;2023-10-19T08:22:41;44.13;;;22.73;;
16173;SDS011;14031;50.158;8.626;2023-10-19T08:25:10;55.20;;;24.63;;
16173;SDS011;14031;50.158;8.626;2023-10-19T08:27:38;48.60;;;24.77;;
16173;SDS011;14031;50.158;8.626;2023-10-19T08:30:06;66.90;;;31.17;;
16173;SDS011;14031;50.158;8.626;2023-10-19T08:32:35;54.53;;;25.10;;
16173;SDS011;14031;50.158;8.626;2023-10-19T08:35:02;45.97;;;24.60;;
16173;SDS011;14031;50.158;8.626;2023-10-19T08:37:30;47.87;;;22.47;;
16173;SDS011;14031;50.158;8.626;2023-10-19T08:39:59;55.30;;;23.97;;
16173;SDS011;14031;50.158;8.626;2023-10-19T08:42:28;47.60;;;24.23;;
16173;SDS011;14031;50.158;8.626;2023-10-19T08:44:55;48.93;;;23.07;;
16173;SDS011;14031;50.158;8.626;2023-10-19T08:47:24;47.33;;;22.97;;
16173;SDS011;14031;50.158;8.626;2023-10-19T08:49:51;56.20;;;23.53;;
16173;SDS011;14031;50.158;8.626;2023-10-19T08:52:19;53.40;;;24.67;;
16173;SDS011;14031;50.158;8.626;2023-10-19T08:54:48;46.50;;;23.63;;
16173;SDS011;14031;50.158;8.626;2023-10-19T08:57:15;43.10;;;23.17;;
16173;SDS011;14031;50.158;8.626;2023-10-19T08:59:44;44.03;;;23.00;;
16173;SDS011;14031;50.158;8.626;2023-10-19T09:02:13;53.33;;;22.60;;
16173;SDS011;14031;50.158;8.626;2023-10-19T09:04:43;44.83;;;23.87;;
16173;SDS011;14031;50.158;8.626;2023-10-19T09:07:10;51.53;;;24.27;;
16173;SDS011;14031;50.158;8.626;2023-10-19T09:09:37;53.13;;;23.67;;
16173;SDS011;14031;50.158;8.626;2023-10-19T09:12:06;48.70;;;23.83;;
16173;SDS011;14031;50.158;8.626;2023-10-19T09:14:34;54.47;;;24.30;;
16173;SDS011;14031;50.158;8.626;2023-10-19T09:17:06;47.57;;;23.13;;
16173;SDS011;14031;50.158;8.626;2023-10-19T09:19:39;49.30;;;24.03;;
16173;SDS011;14031;50.158;8.626;2023-10-19T09:22:08;45.37;;;23.00;;
16173;SDS011;14031;50.158;8.626;2023-10-19T09:24:42;51.73;;;23.37;;
16173;SDS011;14031;50.158;8.626;2023-10-19T09:27:10;53.27;;;24.63;;
16173;SDS011;14031;50.158;8.626;2023-10-19T09:29:38;55.93;;;23.80;;
16173;SDS011;14031;50.158;8.626;2023-10-19T09:32:07;49.50;;;22.90;;
16173;SDS011;14031;50.158;8.626;2023-10-19T09:34:34;56.50;;;25.17;;
16173;SDS011;14031;50.158;8.626;2023-10-19T09:37:03;57.90;;;24.93;;
16173;SDS011;14031;50.158;8.626;2023-10-19T09:39:30;66.27;;;25.20;;
16173;SDS011;14031;50.158;8.626;2023-10-19T09:42:00;66.07;;;30.13;;
16173;SDS011;14031;50.158;8.626;2023-10-19T09:44:32;66.13;;;30.67;;
16173;SDS011;14031;50.158;8.626;2023-10-19T09:47:07;65.87;;;32.43;;
16173;SDS011;14031;50.158;8.626;2023-10-19T09:49:37;60.90;;;31.53;;
16173;SDS011;14031;50.158;8.626;2023-10-19T09:52:05;48.30;;;24.10;;
16173;SDS011;14031;50.158;8.626;2023-10-19T09:54:34;49.87;;;25.07;;
16173;SDS011;14031;50.158;8.626;2023-10-19T09:57:10;44.40;;;23.90;;
16173;SDS011;14031;50.158;8.626;2023-10-19T09:59:43;45.70;;;24.37;;
16173;SDS011;14031;50.158;8.626;2023-10-19T10:02:15;41.63;;;24.67;;
16173;SDS011;14031;50.158;8.626;2023-10-19T10:04:44;46.92;;;23.88;;
16173;SDS011;14031;50.158;8.626;2023-10-19T10:07:11;53.65;;;25.30;;
16173;SDS011;14031;50.158;8.626;2023-10-19T10:09:39;44.70;;;22.88;;
16173;SDS011;14031;50.158;8.626;2023-10-19T10:12:15;45.43;;;25.07;;
16173;SDS011;14031;50.158;8.626;2023-10-19T10:14:57;44.50;;;24.45;;
16173;SDS011;14031;50.158;8.626;2023-10-19T10:17:28;50.38;;;24.95;;
16173;SDS011;14031;50.158;8.626;2023-10-19T10:19:55;56.90;;;26.00;;
16173;SDS011;14031;50.158;8.626;2023-10-19T10:22:43;50.42;;;25.15;;
16173;SDS011;14031;50.158;8.626;2023-10-19T10:25:13;45.83;;;25.58;;
16173;SDS011;14031;50.158;8.626;2023-10-19T10:27:52;48.42;;;25.05;;
16173;SDS011;14031;50.158;8.626;2023-10-19T10:30:19;56.47;;;26.42;;
16173;SDS011;14031;50.158;8.626;2023-10-19T10:32:48;52.33;;;24.00;;
16173;SDS011;14031;50.158;8.626;2023-10-19T10:38:22;51.50;;;24.83;;
16173;SDS011;14031;50.158;8.626;2023-10-19T10:40:49;57.90;;;25.42;;
16173;SDS011;14031;50.158;8.626;2023-10-19T10:43:18;53.10;;;25.10;;
16173;SDS011;14031;50.158;8.626;2023-10-19T10:45:46;49.08;;;24.63;;
16173;SDS011;14031;50.158;8.626;2023-10-19T10:48:15;53.03;;;25.53;;
16173;SDS011;14031;50.158;8.626;2023-10-19T10:50:42;53.67;;;25.73;;
16173;SDS011;14031;50.158;8.626;2023-10-19T10:53:11;61.20;;;25.80;;
16173;SDS011;14031;50.158;8.626;2023-10-19T10:55:38;64.43;;;26.50;;
16173;SDS011;14031;50.158;8.626;2023-10-19T10:58:05;56.95;;;26.35;;
16173;SDS011;14031;50.158;8.626;2023-10-19T11:00:32;54.97;;;25.40;;
16173;SDS011;14031;50.158;8.626;2023-10-19T11:03:02;52.90;;;25.23;;
16173;SDS011;14031;50.158;8.626;2023-10-19T11:05:41;57.90;;;27.17;;
16173;SDS011;14031;50.158;8.626;2023-10-19T11:08:15;50.50;;;25.63;;
16173;SDS011;14031;50.158;8.626;2023-10-19T11:10:44;52.27;;;25.63;;
16173;SDS011;14031;50.158;8.626;2023-10-19T11:13:12;51.47;;;26.40;;
16173;SDS011;14031;50.158;8.626;2023-10-19T11:15:47;50.97;;;25.10;;
16173;SDS011;14031;50.158;8.626;2023-10-19T11:18:27;47.65;;;24.42;;
16173;SDS011;14031;50.158;8.626;2023-10-19T11:20:56;44.58;;;24.35;;
16173;SDS011;14031;50.158;8.626;2023-10-19T11:23:34;49.70;;;25.55;;
16173;SDS011;14031;50.158;8.626;2023-10-19T11:26:04;43.83;;;25.23;;
16173;SDS011;14031;50.158;8.626;2023-10-19T11:28:34;45.13;;;26.15;;
16173;SDS011;14031;50.158;8.626;2023-10-19T11:31:10;46.95;;;26.48;;
16173;SDS011;14031;50.158;8.626;2023-10-19T11:33:41;41.08;;;24.92;;
16173;SDS011;14031;50.158;8.626;2023-10-19T11:36:10;43.13;;;26.20;;
16173;SDS011;14031;50.158;8.626;2023-10-19T11:38:41;47.75;;;24.67;;
16173;SDS011;14031;50.158;8.626;2023-10-19T11:41:09;46.03;;;26.30;;
16173;SDS011;14031;50.158;8.626;2023-10-19T11:43:38;51.88;;;27.30;;
16173;SDS011;14031;50.158;8.626;2023-10-19T11:46:07;54.00;;;29.67;;
16173;SDS011;14031;50.158;8.626;2023-10-19T11:48:36;55.28;;;30.52;;
16173;SDS011;14031;50.158;8.626;2023-10-19T11:51:05;51.00;;;28.52;;
16173;SDS011;14031;50.158;8.626;2023-10-19T11:53:33;45.53;;;25.92;;
16173;SDS011;14031;50.158;8.626;2023-10-19T11:56:02;47.97;;;24.45;;
16173;SDS011;14031;50.158;8.626;2023-10-19T11:58:30;42.53;;;25.95;;
16173;SDS011;14031;50.158;8.626;2023-10-19T12:00:59;42.40;;;25.88;;
16173;SDS011;14031;50.158;8.626;2023-10-19T12:03:28;43.25;;;26.10;;
16173;SDS011;14031;50.158;8.626;2023-10-19T12:05:55;45.42;;;26.42;;
16173;SDS011;14031;50.158;8.626;2023-10-19T12:08:22;44.40;;;24.75;;
16173;SDS011;14031;50.158;8.626;2023-10-19T12:10:50;46.83;;;25.33;;
16173;SDS011;14031;50.158;8.626;2023-10-19T12:13:28;43.85;;;25.90;;
16173;SDS011;14031;50.158;8.626;2023-10-19T12:15:56;45.90;;;26.38;;
16173;SDS011;14031;50.158;8.626;2023-10-19T12:18:23;42.72;;;25.65;;
16173;SDS011;14031;50.158;8.626;2023-10-19T12:20:51;43.85;;;24.73;;
16173;SDS011;14031;50.158;8.626;2023-10-19T12:23:21;42.42;;;24.17;;
16173;SDS011;14031;50.158;8.626;2023-10-19T12:25:50;47.17;;;25.33;;
16173;SDS011;14031;50.158;8.626;2023-10-19T12:28:17;55.97;;;25.65;;
16173;SDS011;14031;50.158;8.626;2023-10-19T12:30:45;51.30;;;26.58;;
16173;SDS011;14031;50.158;8.626;2023-10-19T12:33:13;51.33;;;27.05;;
16173;SDS011;14031;50.158;8.626;2023-10-19T12:35:40;50.47;;;25.65;;
16173;SDS011;14031;50.158;8.626;2023-10-19T12:38:14;44.03;;;25.75;;
16173;SDS011;14031;50.158;8.626;2023-10-19T12:40:42;48.08;;;26.05;;
16173;SDS011;14031;50.158;8.626;2023-10-19T12:43:10;43.78;;;24.73;;
16173;SDS011;14031;50.158;8.626;2023-10-19T12:45:37;38.60;;;24.42;;
16173;SDS011;14031;50.158;8.626;2023-10-19T12:48:05;44.25;;;26.23;;
16173;SDS011;14031;50.158;8.626;2023-10-19T12:50:33;48.50;;;26.17;;
16173;SDS011;14031;50.158;8.626;2023-10-19T12:53:01;49.70;;;25.10;;
16173;SDS011;14031;50.158;8.626;2023-10-19T12:55:28;44.55;;;25.30;;
16173;SDS011;14031;50.158;8.626;2023-10-19T12:57:56;38.80;;;24.63;;
16173;SDS011;14031;50.158;8.626;2023-10-19T13:00:26;41.55;;;23.92;;
16173;SDS011;14031;50.158;8.626;2023-10-19T13:02:54;45.05;;;25.33;;
16173;SDS011;14031;50.158;8.626;2023-10-19T13:05:26;48.03;;;25.08;;
16173;SDS011;14031;50.158;8.626;2023-10-19T13:07:53;41.45;;;25.30;;
16173;SDS011;14031;50.158;8.626;2023-10-19T13:10:23;46.88;;;25.40;;
16173;SDS011;14031;50.158;8.626;2023-10-19T13:13:00;46.25;;;25.50;;
16173;SDS011;14031;50.158;8.626;2023-10-19T13:15:31;40.65;;;24.45;;
16173;SDS011;14031;50.158;8.626;2023-10-19T13:17:59;49.70;;;26.33;;
16173;SDS011;14031;50.158;8.626;2023-10-19T13:20:26;45.08;;;25.73;;
16173;SDS011;14031;50.158;8.626;2023-10-19T13:22:58;48.67;;;26.73;;
16173;SDS011;14031;50.158;8.626;2023-10-19T13:25:26;45.75;;;25.73;;
16173;SDS011;14031;50.158;8.626;2023-10-19T13:28:06;50.63;;;25.95;;
16173;SDS011;14031;50.158;8.626;2023-10-19T13:30:39;42.40;;;23.77;;
16173;SDS011;14031;50.158;8.626;2023-10-19T13:33:07;47.03;;;26.30;;
16173;SDS011;14031;50.158;8.626;2023-10-19T13:35:35;47.97;;;25.17;;
16173;SDS011;14031;50.158;8.626;2023-10-19T13:38:03;50.75;;;24.80;;
16173;SDS011;14031;50.158;8.626;2023-10-19T13:40:31;47.40;;;26.02;;
16173;SDS011;14031;50.158;8.626;2023-10-19T13:42:57;49.35;;;25.88;;
16173;SDS011;14031;50.158;8.626;2023-10-19T13:45:25;50.35;;;25.63;;
16173;SDS011;14031;50.158;8.626;2023-10-19T13:47:55;49.10;;;26.92;;
16173;SDS011;14031;50.158;8.626;2023-10-19T13:50:23;47.85;;;27.17;;
16173;SDS011;14031;50.158;8.626;2023-10-19T13:52:51;45.40;;;26.10;;
16173;SDS011;14031;50.158;8.626;2023-10-19T13:55:19;47.40;;;26.73;;
16173;SDS011;14031;50.158;8.626;2023-10-19T13:57:46;48.53;;;26.67;;
16173;SDS011;14031;50.158;8.626;2023-10-19T14:00:14;53.30;;;27.02;;
16173;SDS011;14031;50.158;8.626;2023-10-19T14:02:48;56.83;;;26.70;;
16173;SDS011;14031;50.158;8.626;2023-10-19T14:05:17;54.17;;;27.85;;
16173;SDS011;14031;50.158;8.626;2023-10-19T14:07:45;47.53;;;27.13;;
16173;SDS011;14031;50.158;8.626;2023-10-19T14:10:12;53.35;;;27.23;;
16173;SDS011;14031;50.158;8.626;2023-10-19T14:12:39;57.75;;;28.20;;
16173;SDS011;14031;50.158;8.626;2023-10-19T14:15:08;55.40;;;27.15;;
16173;SDS011;14031;50.158;8.626;2023-10-19T14:17:39;53.10;;;28.30;;
16173;SDS011;14031;50.158;8.626;2023-10-19T14:20:06;52.50;;;27.05;;
16173;SDS011;14031;50.158;8.626;2023-10-19T14:22:38;49.13;;;26.73;;
16173;SDS011;14031;50.158;8.626;2023-10-19T14:25:07;49.67;;;26.63;;
16173;SDS011;14031;50.158;8.626;2023-10-19T14:27:37;48.58;;;26.08;;
16173;SDS011;14031;50.158;8.626;2023-10-19T14:30:06;47.78;;;26.90;;
16173;SDS011;14031;50.158;8.626;2023-10-19T14:32:35;51.15;;;27.55;;
16173;SDS011;14031;50.158;8.626;2023-10-19T14:35:01;48.38;;;27.15;;
16173;SDS011;14031;50.158;8.626;2023-10-19T14:37:31;52.72;;;28.25;;
16173;SDS011;14031;50.158;8.626;2023-10-19T14:39:59;53.95;;;27.38;;
16173;SDS011;14031;50.158;8.626;2023-10-19T14:42:26;50.65;;;26.90;;